createdAt,value
2018-07-01T00:01:11.698Z,64.50
2018-07-01T00:03:46.131Z,66.03
2018-07-01T00:06:17.237Z,67.47
2018-07-01T00:08:46.293Z,65.83
2018-07-01T00:11:16.281Z,67.91
2018-07-01T00:13:46.301Z,66.08
2018-07-01T00:16:16.322Z,67.44
2018-07-01T00:18:46.427Z,66.72
2018-07-01T00:21:15.462Z,67.84
2018-07-01T00:23:44.523Z,66.07
2018-07-01T00:26:15.495Z,66.06
2018-07-01T00:28:45.515Z,67.76
2018-07-01T00:31:14.586Z,66.55
2018-07-01T00:33:43.633Z,66.79
2018-07-01T00:36:17.747Z,68.59
2018-07-01T00:38:46.808Z,68.82
2018-07-01T00:41:21.448Z,68.61
2018-07-01T00:43:55.260Z,69.79
2018-07-01T00:46:24.309Z,69.86
2018-07-01T00:48:53.358Z,70.21
2018-07-01T00:51:22.421Z,69.99
2018-07-01T00:53:51.512Z,69.70
2018-07-01T00:56:20.580Z,69.67
2018-07-01T00:58:49.643Z,69.40
2018-07-01T01:01:18.747Z,69.64
2018-07-01T01:03:48.777Z,70.90
2018-07-01T01:06:18.797Z,71.15
2018-07-01T01:08:47.853Z,71.07
2018-07-01T01:11:16.906Z,71.30
2018-07-01T01:16:25.222Z,71.30
2018-07-01T01:18:55.173Z,71.84
2018-07-01T01:21:25.178Z,74.35
2018-07-01T01:26:29.929Z,72.03
2018-07-01T01:28:58.995Z,72.69
2018-07-01T01:31:28.092Z,73.17
2018-07-01T01:33:57.129Z,73.50
2018-07-01T01:36:26.209Z,72.77
2018-07-01T01:38:55.269Z,74.74
2018-07-01T01:41:25.330Z,73.75
2018-07-01T01:43:57.701Z,75.12
2018-07-01T01:46:26.749Z,75.55
2018-07-01T01:51:31.569Z,73.62
2018-07-01T01:56:36.341Z,75.61
2018-07-01T01:59:13.781Z,75.32
2018-07-01T02:01:46.578Z,74.68
2018-07-01T02:04:17.561Z,74.29
2018-07-01T02:06:46.613Z,74.24
2018-07-01T02:09:15.697Z,77.28
2018-07-01T02:14:08.692Z,75.05
2018-07-01T02:16:37.761Z,75.38
2018-07-01T02:19:06.826Z,75.77
2018-07-01T02:21:37.839Z,76.31
2018-07-01T02:24:07.861Z,77.53
2018-07-01T02:26:37.886Z,76.22
2018-07-01T02:29:06.933Z,77.33
2018-07-01T02:31:35.987Z,76.21
2018-07-01T02:34:06.956Z,76.62
2018-07-01T02:36:36.937Z,76.49
2018-07-01T02:39:06.143Z,76.04
2018-07-01T02:41:36.214Z,76.30
2018-07-01T02:44:05.311Z,75.59
2018-07-01T02:46:44.699Z,76.23
2018-07-01T02:49:13.753Z,76.65
2018-07-01T02:54:18.646Z,77.32
2018-07-01T02:56:47.702Z,77.63
2018-07-01T02:59:16.747Z,77.93
2018-07-01T03:01:45.831Z,77.52
2018-07-01T03:04:14.973Z,78.09
2018-07-01T03:06:43.993Z,78.21
2018-07-01T03:09:15.020Z,80.79
2018-07-01T03:11:46.022Z,78.78
2018-07-01T03:14:15.082Z,79.07
2018-07-01T03:16:44.141Z,78.73
2018-07-01T03:21:49.895Z,78.76
2018-07-01T03:24:18.953Z,79.90
2018-07-01T03:29:23.772Z,78.16
2018-07-01T03:34:28.517Z,80.14
2018-07-01T03:39:33.599Z,79.54
2018-07-01T03:42:02.703Z,79.03
2018-07-01T03:44:32.678Z,78.66
2018-07-01T03:47:01.725Z,79.68
2018-07-01T03:49:30.886Z,79.75
2018-07-01T03:52:01.928Z,79.21
2018-07-01T03:54:31.009Z,80.48
2018-07-01T03:57:00.103Z,79.24
2018-07-01T03:59:30.153Z,79.53
2018-07-01T04:01:59.509Z,79.45
2018-07-01T04:04:28.594Z,79.55
2018-07-01T04:06:57.676Z,78.40
2018-07-01T04:12:02.316Z,79.47
2018-07-01T04:14:33.352Z,79.94
2018-07-01T04:17:09.652Z,79.17
2018-07-01T04:19:38.734Z,79.19
2018-07-01T04:22:08.717Z,80.70
2018-07-01T04:24:38.740Z,80.61
2018-07-01T04:27:11.721Z,81.49
2018-07-01T04:29:40.772Z,80.68
2018-07-01T04:32:13.475Z,81.04
2018-07-01T04:34:42.592Z,81.65
2018-07-01T04:37:11.649Z,80.67
2018-07-01T04:39:40.720Z,80.53
2018-07-01T04:42:09.776Z,82.76
2018-07-01T04:44:38.922Z,82.25
2018-07-01T04:47:07.997Z,83.16
2018-07-01T04:49:37.054Z,84.33
2018-07-01T04:54:53.105Z,80.95
2018-07-01T04:57:22.161Z,80.80
2018-07-01T04:59:51.209Z,78.07
2018-07-01T05:02:20.550Z,75.12
2018-07-01T05:04:50.536Z,71.42
2018-07-01T05:07:19.582Z,69.46
2018-07-01T05:09:49.558Z,69.61
2018-07-01T05:12:20.597Z,69.85
2018-07-01T05:14:49.665Z,68.43
2018-07-01T05:17:18.716Z,67.12
2018-07-01T05:19:51.780Z,68.28
2018-07-01T05:22:21.843Z,67.69
2018-07-01T05:24:50.906Z,66.81
2018-07-01T05:27:21.085Z,66.62
2018-07-01T05:29:50.284Z,66.07
2018-07-01T05:32:27.525Z,67.54
2018-07-01T05:37:32.289Z,64.55
2018-07-01T05:40:01.355Z,64.32
2018-07-01T05:42:30.768Z,65.36
2018-07-01T05:44:59.816Z,63.57
2018-07-01T05:52:46.216Z,62.57
2018-07-01T05:57:50.987Z,63.96
2018-07-01T06:00:24.732Z,63.00
2018-07-01T06:02:53.781Z,62.17
2018-07-01T06:05:22.860Z,61.81
2018-07-01T06:07:51.942Z,61.19
2018-07-01T06:10:21.294Z,61.31
2018-07-01T06:12:50.329Z,61.76
2018-07-01T06:15:19.439Z,61.75
2018-07-01T06:19:50.026Z,61.17
2018-07-01T06:22:19.154Z,59.26
2018-07-01T06:27:24.058Z,59.78
2018-07-01T06:29:53.116Z,60.07
2018-07-01T06:32:32.096Z,59.09
2018-07-01T06:35:01.241Z,59.89
2018-07-01T06:37:31.304Z,59.08
2018-07-01T06:40:00.359Z,59.54
2018-07-01T06:42:29.439Z,58.93
2018-07-01T06:44:58.639Z,59.90
2018-07-01T06:50:03.409Z,57.84
2018-07-01T06:55:08.255Z,57.11
2018-07-01T06:57:48.310Z,56.97
2018-07-01T07:00:19.474Z,55.91
2018-07-01T07:02:52.072Z,54.67
2018-07-01T07:05:22.030Z,55.67
2018-07-01T07:10:26.923Z,55.46
2018-07-01T07:12:56.011Z,54.47
2018-07-01T07:15:25.041Z,55.35
2018-07-01T07:17:54.093Z,53.30
2018-07-01T07:20:30.745Z,52.48
2018-07-01T07:28:14.729Z,52.56
2018-07-01T07:30:55.628Z,52.75
2018-07-01T07:33:26.720Z,52.54
2018-07-01T07:35:55.757Z,51.12
2018-07-01T07:38:25.245Z,52.28
2018-07-01T07:43:30.293Z,52.89
2018-07-01T07:48:35.085Z,50.76
2018-07-01T07:51:04.360Z,52.58
2018-07-01T07:53:33.453Z,51.99
2018-07-01T07:58:38.241Z,50.48
2018-07-01T08:01:07.681Z,49.44
2018-07-01T08:03:36.753Z,51.08
2018-07-01T08:06:05.898Z,50.38
2018-07-01T08:08:35.023Z,49.80
2018-07-01T08:11:05.098Z,51.17
2018-07-01T08:13:34.348Z,48.87
2018-07-01T08:16:05.425Z,48.72
2018-07-01T08:18:36.519Z,48.88
2018-07-01T08:21:05.562Z,48.92
2018-07-01T08:23:35.551Z,47.43
2018-07-01T08:26:04.841Z,47.19
2018-07-01T08:31:09.636Z,46.95
2018-07-01T08:33:38.700Z,48.84
2018-07-01T08:36:08.880Z,49.30
2018-07-01T08:38:37.929Z,46.77
2018-07-01T08:41:08.886Z,46.84
2018-07-01T08:43:52.354Z,48.09
2018-07-01T08:46:21.512Z,47.43
2018-07-01T08:48:50.640Z,46.72
2018-07-01T08:51:21.720Z,47.42
2018-07-01T08:53:51.763Z,45.69
2018-07-01T08:56:28.807Z,46.86
2018-07-01T08:58:57.903Z,44.24
2018-07-01T09:01:42.784Z,46.45
2018-07-01T09:09:23.326Z,43.78
2018-07-01T09:11:55.588Z,43.41
2018-07-01T09:14:26.689Z,43.23
2018-07-01T09:16:55.790Z,43.61
2018-07-01T09:19:32.200Z,41.35
2018-07-01T09:22:07.182Z,42.03
2018-07-01T09:24:36.246Z,42.73
2018-07-01T09:27:05.312Z,40.86
2018-07-01T09:29:34.513Z,41.59
2018-07-01T09:32:13.545Z,40.82
2018-07-01T09:34:42.638Z,39.13
2018-07-01T09:37:11.753Z,33.13
2018-07-01T09:39:40.988Z,32.05
2018-07-01T09:42:10.972Z,30.63
2018-07-01T09:47:15.899Z,33.84
2018-07-01T09:49:44.933Z,31.25
2018-07-01T09:52:13.990Z,32.36
2018-07-01T09:54:43.256Z,31.60
2018-07-01T09:59:49.289Z,31.59
2018-07-01T10:02:18.702Z,31.99
2018-07-01T10:04:47.730Z,29.31
2018-07-01T10:07:17.742Z,31.82
2018-07-01T10:09:48.781Z,29.10
2018-07-01T10:12:28.646Z,24.59
2018-07-01T10:14:57.775Z,28.72
2018-07-01T10:17:27.738Z,30.46
2018-07-01T10:19:56.825Z,27.36
2018-07-01T10:22:27.881Z,27.17
2018-07-01T10:25:01.189Z,28.14
2018-07-01T10:27:30.243Z,24.89
2018-07-01T10:29:59.389Z,26.07
2018-07-01T10:32:35.754Z,26.97
2018-07-01T10:35:06.789Z,24.88
2018-07-01T10:37:39.266Z,26.85
2018-07-01T10:40:12.198Z,27.59
2018-07-01T10:42:41.424Z,23.16
2018-07-01T10:45:10.493Z,26.33
2018-07-01T10:47:40.470Z,24.52
2018-07-01T10:50:11.575Z,22.71
2018-07-01T10:52:50.037Z,23.25
2018-07-01T10:55:19.350Z,25.18
2018-07-01T10:57:48.391Z,29.01
2018-07-01T11:00:17.451Z,28.48
2018-07-01T11:02:47.559Z,27.16
2018-07-01T11:05:16.879Z,26.74
2018-07-01T11:07:45.945Z,24.18
2018-07-01T11:10:15.012Z,22.22
2018-07-01T11:12:44.361Z,23.85
2018-07-01T11:15:16.863Z,23.38
2018-07-01T11:17:45.919Z,21.55
2018-07-01T11:20:16.956Z,23.43
2018-07-01T11:22:45.932Z,22.39
2018-07-01T11:25:18.962Z,22.11
2018-07-01T11:27:48.022Z,24.31
2018-07-01T11:30:17.275Z,28.53
2018-07-01T11:32:48.551Z,28.38
2018-07-01T11:35:17.593Z,24.72
2018-07-01T11:37:46.649Z,25.91
2018-07-01T11:42:51.511Z,26.11
2018-07-01T11:45:24.785Z,26.45
2018-07-01T11:47:53.843Z,25.88
2018-07-01T11:50:23.909Z,26.19
2018-07-01T11:55:28.774Z,25.09
2018-07-01T11:57:57.997Z,22.49
2018-07-01T12:00:27.064Z,22.65
2018-07-01T12:02:59.858Z,22.33
2018-07-01T12:05:28.971Z,21.17
2018-07-01T12:07:57.981Z,21.17
2018-07-01T12:10:27.118Z,21.58
2018-07-01T12:12:56.195Z,20.66
2018-07-01T12:15:25.253Z,22.56
2018-07-01T12:17:55.259Z,23.35
2018-07-01T12:20:24.583Z,20.96
2018-07-01T12:25:29.527Z,25.18
2018-07-01T12:27:58.594Z,23.98
2018-07-01T12:30:28.887Z,23.13
2018-07-01T12:32:57.994Z,21.11
2018-07-01T12:35:34.615Z,20.61
2018-07-01T12:38:05.595Z,20.34
2018-07-01T12:40:34.657Z,18.80
2018-07-01T12:45:39.578Z,19.15
2018-07-01T12:48:08.639Z,21.38
2018-07-01T12:50:37.705Z,20.18
2018-07-01T12:53:06.787Z,20.61
2018-07-01T12:55:35.838Z,19.40
2018-07-01T12:58:05.046Z,19.99
2018-07-01T13:00:34.302Z,19.58
2018-07-01T13:03:03.341Z,22.42
2018-07-01T13:05:32.400Z,21.72
2018-07-01T13:08:03.356Z,22.35
2018-07-01T13:13:08.216Z,23.65
2018-07-01T13:15:37.658Z,26.36
2018-07-01T13:18:07.734Z,26.60
2018-07-01T13:23:16.861Z,24.79
2018-07-01T13:25:46.901Z,25.50
2018-07-01T13:28:17.049Z,25.82
2018-07-01T13:30:46.207Z,27.58
2018-07-01T13:33:15.242Z,28.99
2018-07-01T13:38:20.086Z,30.43
2018-07-01T13:40:50.080Z,30.08
2018-07-01T13:43:19.171Z,28.79
2018-07-01T13:45:48.216Z,29.54
2018-07-01T13:50:53.157Z,27.23
2018-07-01T13:53:24.298Z,28.87
2018-07-01T13:55:54.676Z,28.51
2018-07-01T13:58:24.744Z,30.00
2018-07-01T14:00:58.824Z,28.47
2018-07-01T14:03:27.853Z,28.62
2018-07-01T14:06:00.827Z,28.21
2018-07-01T14:08:29.992Z,27.33
2018-07-01T14:10:59.139Z,26.64
2018-07-01T14:13:28.193Z,29.47
2018-07-01T14:15:57.261Z,26.82
2018-07-01T14:18:26.327Z,27.00
2018-07-01T14:20:56.614Z,28.33
2018-07-01T14:23:25.675Z,27.16
2018-07-01T14:25:54.745Z,26.77
2018-07-01T14:28:23.802Z,27.24
2018-07-01T14:30:53.051Z,26.44
2018-07-01T14:33:22.113Z,25.66
2018-07-01T14:35:51.182Z,26.01
2018-07-01T14:38:20.251Z,26.79
2018-07-01T14:40:50.506Z,26.23
2018-07-01T14:43:19.744Z,26.01
2018-07-01T14:45:50.826Z,25.34
2018-07-01T14:48:19.895Z,22.89
2018-07-01T14:50:48.958Z,23.70
2018-07-01T14:53:19.237Z,24.47
2018-07-01T14:55:48.408Z,22.84
2018-07-01T15:00:53.249Z,19.07
2018-07-01T15:03:22.321Z,20.43
2018-07-01T15:05:51.377Z,19.96
2018-07-01T15:08:20.453Z,18.41
2018-07-01T15:10:49.774Z,18.34
2018-07-01T15:13:18.821Z,17.25
2018-07-01T15:15:47.885Z,17.82
2018-07-01T15:18:16.973Z,16.63
2018-07-01T15:23:23.849Z,15.45
2018-07-01T15:25:54.849Z,16.06
2018-07-01T15:28:23.986Z,15.37
2018-07-01T15:30:53.184Z,16.72
2018-07-01T15:35:59.026Z,15.85
2018-07-01T15:38:28.310Z,15.59
2018-07-01T15:40:58.362Z,16.00
2018-07-01T15:48:45.966Z,14.73
2018-07-01T15:51:14.971Z,15.03
2018-07-01T15:53:44.533Z,15.36
2018-07-01T15:58:49.602Z,14.17
2018-07-01T16:01:18.701Z,15.57
2018-07-01T16:03:47.929Z,15.62
2018-07-01T16:08:52.850Z,14.64
2018-07-01T16:11:22.059Z,14.89
2018-07-01T16:13:51.143Z,16.29
2018-07-01T16:18:57.053Z,16.61
2018-07-01T16:24:01.979Z,15.15
2018-07-01T16:29:06.837Z,15.46
2018-07-01T16:31:37.851Z,16.39
2018-07-01T16:34:09.086Z,19.03
2018-07-01T16:36:38.313Z,22.50
2018-07-01T16:39:07.341Z,24.36
2018-07-01T16:41:36.407Z,23.69
2018-07-01T16:44:05.458Z,24.53
2018-07-01T16:46:34.669Z,26.33
2018-07-01T16:54:23.697Z,28.98
2018-07-01T16:56:53.731Z,28.17
2018-07-01T16:59:22.871Z,27.87
2018-07-01T17:01:52.006Z,28.04
2018-07-01T17:04:21.070Z,28.80
2018-07-01T17:06:50.214Z,29.73
2018-07-01T17:11:55.237Z,30.10
2018-07-01T17:14:24.291Z,29.11
2018-07-01T17:16:57.270Z,30.60
2018-07-01T17:22:02.144Z,29.84
2018-07-01T17:24:32.125Z,33.60
2018-07-01T17:27:04.574Z,33.78
2018-07-01T17:37:34.603Z,35.47
2018-07-01T17:42:41.949Z,36.65
2018-07-01T17:45:34.521Z,34.80
2018-07-01T17:48:04.583Z,35.56
2018-07-01T17:50:48.150Z,36.10
2018-07-01T17:53:19.209Z,38.87
2018-07-01T17:55:52.160Z,37.22
2018-07-01T17:58:46.111Z,38.13
2018-07-01T18:01:15.176Z,37.86
2018-07-01T18:03:48.080Z,37.18
2018-07-01T18:06:17.432Z,36.92
2018-07-01T18:08:46.492Z,37.45
2018-07-01T18:11:15.700Z,37.39
2018-07-01T18:13:46.732Z,38.04
2018-07-01T18:16:26.962Z,37.66
2018-07-01T18:21:41.213Z,40.14
2018-07-01T18:24:35.141Z,38.92
2018-07-01T18:26:36.273Z,38.81
2018-07-01T18:29:16.772Z,39.33
2018-07-01T18:31:46.900Z,38.68
2018-07-01T18:34:15.861Z,39.81
2018-07-01T18:36:44.940Z,39.10
2018-07-01T18:39:14.055Z,39.21
2018-07-01T18:44:18.905Z,39.79
2018-07-01T18:49:23.795Z,39.84
2018-07-01T18:51:57.118Z,41.44
2018-07-01T18:57:01.940Z,41.13
2018-07-01T18:59:30.983Z,41.96
2018-07-01T19:02:00.953Z,41.02
2018-07-01T19:04:30.020Z,42.73
2018-07-01T19:07:01.235Z,42.09
2018-07-01T19:09:31.171Z,41.57
2018-07-01T19:12:04.534Z,43.08
2018-07-01T19:14:33.582Z,42.30
2018-07-01T19:22:18.294Z,41.97
2018-07-01T19:24:47.354Z,43.41
2018-07-01T19:27:19.476Z,43.59
2018-07-01T19:29:48.536Z,45.33
2018-07-01T19:32:17.616Z,45.19
2018-07-01T19:34:46.725Z,45.50
2018-07-01T19:37:17.691Z,46.07
2018-07-01T19:39:51.401Z,46.37
2018-07-01T19:42:20.477Z,47.58
2018-07-01T19:44:49.493Z,46.34
2018-07-01T19:49:54.331Z,48.16
2018-07-01T19:52:30.797Z,47.31
2018-07-01T19:55:07.867Z,49.11
2018-07-01T20:00:22.142Z,47.20
2018-07-01T20:05:30.381Z,50.78
2018-07-01T20:08:01.410Z,50.25
2018-07-01T20:13:07.149Z,49.65
2018-07-01T20:15:36.193Z,51.90
2018-07-01T20:18:07.149Z,51.51
2018-07-01T20:28:25.680Z,50.46
2018-07-01T20:31:01.798Z,51.20
2018-07-01T20:33:36.608Z,52.83
2018-07-01T20:38:41.378Z,53.33
2018-07-01T20:41:11.368Z,51.17
2018-07-01T20:43:40.375Z,53.38
2018-07-01T20:48:47.077Z,53.53
2018-07-01T20:51:17.082Z,52.35
2018-07-01T20:56:21.864Z,56.27
2018-07-01T20:58:50.917Z,58.56
2018-07-01T21:01:19.978Z,63.67
2018-07-01T21:06:24.801Z,65.06
2018-07-01T21:11:29.666Z,61.29
2018-07-01T21:13:58.736Z,64.91
2018-07-01T21:16:27.835Z,68.24
2018-07-01T21:21:32.606Z,65.74
2018-07-01T21:24:02.619Z,71.54
2018-07-01T21:26:31.673Z,71.23
2018-07-01T21:29:02.721Z,71.19
2018-07-01T21:31:32.772Z,71.63
2018-07-01T21:34:02.802Z,70.69
2018-07-01T21:39:07.561Z,68.01
2018-07-01T21:41:37.567Z,68.40
2018-07-01T21:46:42.349Z,65.07
2018-07-01T21:49:11.466Z,61.93
2018-07-01T21:54:16.286Z,61.43
2018-07-01T21:56:45.413Z,61.47
2018-07-01T21:59:15.399Z,61.70
2018-07-01T22:06:56.948Z,59.58
2018-07-01T22:09:29.261Z,59.66
2018-07-01T22:12:16.272Z,62.79
2018-07-01T22:14:45.330Z,61.44
2018-07-01T22:17:14.386Z,60.82
2018-07-01T22:22:19.153Z,61.80
2018-07-01T22:24:48.239Z,65.46
2018-07-01T22:27:17.286Z,65.29
2018-07-01T22:29:46.329Z,68.74
2018-07-01T22:32:16.433Z,67.45
2018-07-01T22:34:45.503Z,68.37
2018-07-01T22:37:14.546Z,66.67
2018-07-01T22:39:43.604Z,65.71
2018-07-01T22:42:12.665Z,64.41
2018-07-01T22:44:41.718Z,65.08
2018-07-01T22:47:10.761Z,64.50
2018-07-01T22:49:39.820Z,64.79
2018-07-01T22:52:08.872Z,64.59
2018-07-01T22:54:37.958Z,64.64
2018-07-01T22:57:07.016Z,63.83
2018-07-01T22:59:36.057Z,63.41
2018-07-01T23:02:06.064Z,64.22
2018-07-01T23:04:36.030Z,63.61
2018-07-01T23:09:40.873Z,62.58
2018-07-01T23:12:09.937Z,63.19
2018-07-01T23:14:47.212Z,64.01
2018-07-01T23:17:17.235Z,66.58
2018-07-01T23:19:46.300Z,64.75
2018-07-01T23:22:15.390Z,65.14
2018-07-01T23:27:20.219Z,64.17
2018-07-01T23:29:49.294Z,64.88
2018-07-01T23:32:23.091Z,65.71
2018-07-01T23:34:53.047Z,65.19
2018-07-01T23:39:57.881Z,62.89
2018-07-01T23:42:27.945Z,62.93
2018-07-01T23:44:57.013Z,62.94
2018-07-01T23:47:26.076Z,63.41
2018-07-01T23:49:55.127Z,62.89
2018-07-01T23:52:27.253Z,63.14
2018-07-01T23:54:56.301Z,62.84
